createdAt,value
2023-05-14T00:00:45.564Z,3.47
2023-05-14T00:03:12.391Z,3.35
2023-05-14T00:05:39.069Z,3.10
2023-05-14T00:08:06.246Z,3.55
2023-05-14T00:10:33.015Z,3.42
2023-05-14T00:12:59.562Z,3.53
2023-05-14T00:15:26.163Z,3.10
2023-05-14T00:17:52.748Z,3.33
2023-05-14T00:20:19.524Z,2.83
2023-05-14T00:22:46.077Z,3.30
2023-05-14T00:25:12.691Z,3.10
2023-05-14T00:27:39.457Z,3.55
2023-05-14T00:30:09.717Z,3.42
2023-05-14T00:32:36.378Z,3.83
2023-05-14T00:35:05.888Z,3.40
2023-05-14T00:37:32.491Z,3.72
2023-05-14T00:39:59.086Z,3.58
2023-05-14T00:42:27.169Z,3.42
2023-05-14T00:44:53.804Z,3.40
2023-05-14T00:47:20.971Z,3.63
2023-05-14T00:49:47.647Z,3.47
2023-05-14T00:52:14.661Z,4.43
2023-05-14T00:54:41.327Z,4.43
2023-05-14T00:57:07.884Z,4.30
2023-05-14T00:59:34.860Z,4.65
2023-05-14T01:02:01.668Z,3.90
2023-05-14T01:04:28.272Z,3.92
2023-05-14T01:07:26.581Z,4.15
2023-05-14T01:10:16.013Z,3.95
2023-05-14T01:12:57.858Z,3.95
2023-05-14T01:15:28.471Z,4.00
2023-05-14T01:18:00.121Z,3.58
2023-05-14T01:20:27.220Z,4.30
2023-05-14T01:22:53.774Z,4.43
2023-05-14T01:25:20.535Z,3.88
2023-05-14T01:27:53.491Z,4.15
2023-05-14T01:30:38.694Z,3.88
2023-05-14T01:33:11.531Z,4.22
2023-05-14T01:35:38.264Z,3.90
2023-05-14T01:38:07.976Z,3.90
2023-05-14T01:40:36.758Z,3.95
2023-05-14T01:43:04.499Z,3.97
2023-05-14T01:45:31.641Z,4.35
2023-05-14T01:47:58.316Z,4.50
2023-05-14T01:50:25.185Z,4.50
2023-05-14T01:52:53.569Z,4.85
2023-05-14T01:55:20.306Z,4.22
2023-05-14T01:57:47.031Z,4.65
2023-05-14T02:00:13.891Z,4.72
2023-05-14T02:02:40.709Z,4.38
2023-05-14T02:05:08.056Z,4.70
2023-05-14T02:07:34.663Z,4.40
2023-05-14T02:10:01.351Z,4.32
2023-05-14T02:12:27.921Z,4.57
2023-05-14T02:14:54.491Z,4.35
2023-05-14T02:17:21.066Z,4.28
2023-05-14T02:19:47.663Z,4.18
2023-05-14T02:22:14.260Z,4.30
2023-05-14T02:24:41.194Z,4.07
2023-05-14T02:27:07.754Z,3.92
2023-05-14T02:29:34.309Z,5.00
2023-05-14T02:32:00.862Z,5.10
2023-05-14T02:34:27.453Z,4.60
2023-05-14T02:36:53.992Z,4.35
2023-05-14T02:39:20.559Z,4.15
2023-05-14T02:41:47.101Z,4.10
2023-05-14T02:44:13.643Z,4.20
2023-05-14T02:46:40.318Z,4.00
2023-05-14T02:49:06.985Z,4.07
2023-05-14T02:51:33.539Z,3.80
2023-05-14T02:54:00.186Z,4.25
2023-05-14T02:56:26.822Z,4.35
2023-05-14T02:58:53.411Z,4.18
2023-05-14T03:01:20.555Z,4.22
2023-05-14T03:03:47.736Z,4.70
2023-05-14T03:06:14.785Z,3.90
2023-05-14T03:08:41.707Z,4.10
2023-05-14T03:11:08.326Z,4.43
2023-05-14T03:13:34.893Z,5.03
2023-05-14T03:16:01.454Z,5.13
2023-05-14T03:18:30.633Z,4.70
2023-05-14T03:20:57.359Z,5.20
2023-05-14T03:23:23.944Z,5.45
2023-05-14T03:25:51.067Z,5.72
2023-05-14T03:28:17.621Z,4.82
2023-05-14T03:30:44.394Z,5.45
2023-05-14T03:33:12.274Z,4.88
2023-05-14T03:35:39.247Z,5.38
2023-05-14T03:38:06.049Z,5.60
2023-05-14T03:40:32.611Z,5.40
2023-05-14T03:42:59.285Z,5.63
2023-05-14T03:45:26.984Z,5.65
2023-05-14T03:47:53.623Z,5.80
2023-05-14T03:50:20.418Z,5.13
2023-05-14T03:52:47.076Z,4.70
2023-05-14T03:55:13.646Z,4.63
2023-05-14T03:57:40.584Z,5.20
2023-05-14T04:00:07.706Z,5.03
2023-05-14T04:02:34.391Z,4.90
2023-05-14T04:05:01.028Z,4.68
2023-05-14T04:07:27.569Z,4.90
2023-05-14T04:09:54.193Z,4.65
2023-05-14T04:12:20.857Z,4.97
2023-05-14T04:14:47.433Z,4.78
2023-05-14T04:17:13.996Z,5.03
2023-05-14T04:19:40.598Z,4.82
2023-05-14T04:22:07.259Z,4.82
2023-05-14T04:24:33.812Z,4.70
2023-05-14T04:27:00.524Z,4.95
2023-05-14T04:29:27.332Z,4.80
2023-05-14T04:31:53.971Z,4.57
2023-05-14T04:34:20.648Z,5.20
2023-05-14T04:36:47.197Z,4.43
2023-05-14T04:39:13.761Z,4.72
2023-05-14T04:41:40.335Z,4.97
2023-05-14T04:44:07.206Z,4.50
2023-05-14T04:46:33.907Z,4.40
2023-05-14T04:49:00.561Z,4.55
2023-05-14T04:51:27.705Z,4.03
2023-05-14T04:53:54.292Z,4.20
2023-05-14T04:56:21.535Z,4.75
2023-05-14T04:58:48.163Z,4.20
2023-05-14T05:01:15.264Z,4.65
2023-05-14T05:03:41.925Z,5.13
2023-05-14T05:06:08.506Z,4.68
2023-05-14T05:08:35.176Z,5.18
2023-05-14T05:11:01.784Z,5.50
2023-05-14T05:13:28.387Z,6.15
2023-05-14T05:15:55.008Z,7.00
2023-05-14T05:18:21.668Z,6.22
2023-05-14T05:20:48.302Z,6.80
2023-05-14T05:23:14.890Z,6.10
2023-05-14T05:25:41.481Z,6.22
2023-05-14T05:28:08.042Z,6.88
2023-05-14T05:30:34.716Z,6.50
2023-05-14T05:33:01.367Z,7.18
2023-05-14T05:35:28.042Z,6.28
2023-05-14T05:37:54.588Z,6.80
2023-05-14T05:40:21.240Z,6.70
2023-05-14T05:42:47.877Z,5.75
2023-05-14T05:45:14.704Z,5.70
2023-05-14T05:47:41.324Z,5.60
2023-05-14T05:50:08.882Z,6.40
2023-05-14T05:52:35.612Z,6.68
2023-05-14T05:55:02.210Z,6.40
2023-05-14T05:57:28.778Z,7.05
2023-05-14T05:59:55.461Z,7.07
2023-05-14T06:02:22.925Z,6.45
2023-05-14T06:04:49.603Z,5.68
2023-05-14T06:07:16.172Z,6.28
2023-05-14T06:09:42.723Z,5.95
2023-05-14T06:12:09.504Z,5.55
2023-05-14T06:14:36.674Z,6.00
2023-05-14T06:17:03.249Z,5.35
2023-05-14T06:19:30.388Z,5.60
2023-05-14T06:21:56.936Z,5.15
2023-05-14T06:24:23.555Z,5.95
2023-05-14T06:26:50.089Z,6.05
2023-05-14T06:29:16.678Z,5.57
2023-05-14T06:31:43.566Z,5.43
2023-05-14T06:34:10.735Z,5.40
2023-05-14T06:36:37.377Z,5.80
2023-05-14T06:39:04.144Z,6.20
2023-05-14T06:41:30.797Z,5.88
2023-05-14T06:43:57.700Z,5.70
2023-05-14T06:46:24.347Z,6.18
2023-05-14T06:48:50.942Z,6.72
2023-05-14T06:51:17.575Z,5.95
2023-05-14T06:53:44.134Z,5.55
2023-05-14T06:56:10.983Z,5.30
2023-05-14T06:58:37.529Z,4.78
2023-05-14T07:01:04.335Z,4.55
2023-05-14T07:03:31.139Z,4.85
2023-05-14T07:05:57.741Z,4.32
2023-05-14T07:08:24.433Z,4.20
2023-05-14T07:10:50.981Z,4.20
2023-05-14T07:13:17.564Z,4.57
2023-05-14T07:15:44.750Z,4.45
2023-05-14T07:18:11.648Z,5.03
2023-05-14T07:20:38.317Z,4.43
2023-05-14T07:23:04.925Z,4.97
2023-05-14T07:25:32.699Z,3.75
2023-05-14T07:27:59.270Z,3.90
2023-05-14T07:30:26.118Z,3.90
2023-05-14T07:32:52.974Z,4.60
2023-05-14T07:35:19.607Z,4.68
2023-05-14T07:37:46.203Z,4.35
2023-05-14T07:40:12.903Z,4.22
2023-05-14T07:42:39.468Z,4.80
2023-05-14T07:45:06.584Z,3.92
2023-05-14T07:47:33.361Z,3.70
2023-05-14T07:50:00.049Z,3.60
2023-05-14T07:52:26.749Z,3.05
2023-05-14T07:54:53.564Z,3.40
2023-05-14T07:57:20.278Z,3.30
2023-05-14T07:59:47.889Z,3.63
2023-05-14T08:02:16.298Z,3.33
2023-05-14T08:04:43.226Z,3.25
2023-05-14T08:07:09.824Z,3.30
2023-05-14T08:09:36.554Z,2.75
2023-05-14T08:12:03.548Z,3.10
2023-05-14T08:14:30.227Z,3.05
2023-05-14T08:16:57.259Z,2.60
2023-05-14T08:19:24.553Z,2.70
2023-05-14T08:21:51.497Z,2.60
2023-05-14T08:24:19.042Z,3.30
2023-05-14T08:26:45.916Z,2.80
2023-05-14T08:29:14.668Z,2.90
2023-05-14T08:31:43.323Z,2.75
2023-05-14T08:34:09.997Z,2.90
2023-05-14T08:36:36.603Z,3.10
2023-05-14T08:39:03.368Z,2.60
2023-05-14T08:41:30.191Z,2.50
2023-05-14T08:44:15.696Z,2.50
2023-05-14T08:46:42.419Z,2.90
2023-05-14T08:49:42.721Z,2.83
2023-05-14T08:52:09.599Z,2.72
2023-05-14T08:54:36.518Z,2.10
2023-05-14T08:57:04.558Z,1.80
2023-05-14T08:59:31.435Z,2.28
2023-05-14T09:02:02.302Z,1.92
2023-05-14T09:04:29.717Z,2.33
2023-05-14T09:06:56.363Z,2.10
2023-05-14T09:09:23.558Z,2.10
2023-05-14T09:11:51.548Z,1.90
2023-05-14T09:14:18.430Z,2.13
2023-05-14T09:16:46.915Z,1.65
2023-05-14T09:19:14.046Z,1.88
2023-05-14T09:21:40.765Z,2.15
2023-05-14T09:24:07.883Z,2.00
2023-05-14T09:26:35.233Z,1.70
2023-05-14T09:29:02.760Z,1.70
2023-05-14T09:31:30.680Z,1.98
2023-05-14T09:33:57.686Z,1.92
2023-05-14T09:36:27.649Z,1.77
2023-05-14T09:38:57.912Z,2.10
2023-05-14T09:41:24.787Z,1.77
2023-05-14T09:43:51.849Z,1.70
2023-05-14T09:46:18.536Z,1.77
2023-05-14T09:48:46.321Z,2.00
2023-05-14T09:51:13.572Z,2.05
2023-05-14T09:53:41.333Z,1.73
2023-05-14T09:56:07.938Z,1.75
2023-05-14T09:58:34.500Z,1.80
2023-05-14T10:01:01.958Z,2.00
2023-05-14T10:03:30.800Z,1.50
2023-05-14T10:06:03.735Z,1.65
2023-05-14T10:08:35.857Z,1.70
2023-05-14T10:11:06.935Z,1.55
2023-05-14T10:13:39.370Z,1.80
2023-05-14T10:16:22.247Z,1.77
2023-05-14T10:18:53.547Z,1.95
2023-05-14T10:21:21.888Z,1.80
2023-05-14T10:23:49.216Z,1.88
2023-05-14T10:26:16.174Z,2.10
2023-05-14T10:28:42.994Z,1.75
2023-05-14T10:31:09.953Z,2.00
2023-05-14T10:34:02.833Z,1.70
2023-05-14T10:36:30.224Z,1.60
2023-05-14T10:38:59.592Z,1.50
2023-05-14T10:41:26.181Z,1.48
2023-05-14T10:43:52.738Z,2.00
2023-05-14T10:46:19.356Z,1.88
2023-05-14T10:48:45.934Z,1.80
2023-05-14T10:51:12.863Z,1.85
2023-05-14T10:53:41.375Z,2.00
2023-05-14T10:56:13.237Z,1.90
2023-05-14T10:58:42.166Z,1.90
2023-05-14T11:01:09.634Z,1.65
2023-05-14T11:03:45.533Z,2.00
2023-05-14T11:06:14.950Z,1.80
2023-05-14T11:08:42.140Z,1.80
2023-05-14T11:11:09.572Z,1.83
2023-05-14T11:13:36.145Z,2.05
2023-05-14T11:16:11.986Z,2.00
2023-05-14T11:18:48.119Z,1.80
2023-05-14T11:21:14.776Z,1.80
2023-05-14T11:23:41.448Z,1.90
2023-05-14T11:26:08.057Z,1.80
2023-05-14T11:28:34.619Z,2.08
2023-05-14T11:31:01.237Z,1.80
2023-05-14T11:33:28.014Z,1.83
2023-05-14T11:35:54.561Z,1.60
2023-05-14T11:38:21.369Z,1.70
2023-05-14T11:40:58.627Z,1.60
2023-05-14T11:43:29.111Z,1.50
2023-05-14T11:45:55.969Z,1.67
2023-05-14T11:48:23.847Z,1.55
2023-05-14T11:50:52.845Z,1.70
2023-05-14T11:53:27.542Z,1.70
2023-05-14T11:55:55.072Z,1.60
2023-05-14T11:58:22.151Z,1.70
2023-05-14T12:00:52.467Z,1.67
2023-05-14T12:03:26.664Z,1.52
2023-05-14T12:05:57.698Z,1.60
2023-05-14T12:08:29.549Z,1.48
2023-05-14T12:10:58.524Z,1.63
2023-05-14T12:13:29.989Z,1.70
2023-05-14T12:16:00.418Z,1.60
2023-05-14T12:18:29.872Z,1.80
2023-05-14T12:20:56.776Z,1.85
2023-05-14T12:23:27.140Z,1.60
2023-05-14T12:25:53.783Z,1.42
2023-05-14T12:28:20.834Z,1.50
2023-05-14T12:30:47.575Z,1.70
2023-05-14T12:33:14.759Z,1.83
2023-05-14T12:35:42.297Z,1.65
2023-05-14T12:38:08.905Z,1.50
2023-05-14T12:40:35.485Z,1.42
2023-05-14T12:43:02.074Z,1.77
2023-05-14T12:45:28.644Z,1.52
2023-05-14T12:47:55.324Z,1.70
2023-05-14T12:50:22.169Z,1.60
2023-05-14T12:52:49.005Z,1.50
2023-05-14T12:55:15.628Z,1.58
2023-05-14T12:57:42.230Z,1.85
2023-05-14T13:00:14.189Z,1.50
2023-05-14T13:02:43.044Z,1.90
2023-05-14T13:05:13.279Z,1.92
2023-05-14T13:07:39.988Z,1.70
2023-05-14T13:10:07.126Z,1.85
2023-05-14T13:12:33.896Z,1.67
2023-05-14T13:15:00.592Z,1.95
2023-05-14T13:17:27.326Z,1.88
2023-05-14T13:19:53.886Z,1.60
2023-05-14T13:22:20.475Z,1.73
2023-05-14T13:24:47.072Z,1.83
2023-05-14T13:27:13.616Z,1.65
2023-05-14T13:29:40.211Z,1.58
2023-05-14T13:32:07.187Z,1.80
2023-05-14T13:34:34.048Z,1.90
2023-05-14T13:37:01.256Z,1.98
2023-05-14T13:39:28.008Z,1.60
2023-05-14T13:41:56.894Z,1.67
2023-05-14T13:44:23.950Z,2.00
2023-05-14T13:46:50.774Z,1.60
2023-05-14T13:49:17.557Z,1.60
2023-05-14T13:51:44.467Z,1.63
2023-05-14T13:54:11.085Z,1.90
2023-05-14T13:56:37.740Z,1.85
2023-05-14T13:59:04.425Z,1.77
2023-05-14T14:01:31.780Z,1.45
2023-05-14T14:03:58.513Z,1.57
2023-05-14T14:06:27.536Z,1.50
2023-05-14T14:08:54.321Z,1.30
2023-05-14T14:11:21.018Z,1.60
2023-05-14T14:13:47.775Z,1.60
2023-05-14T14:16:14.487Z,1.50
2023-05-14T14:18:43.084Z,1.50
2023-05-14T14:21:10.492Z,2.00
2023-05-14T14:23:37.133Z,2.00
2023-05-14T14:26:03.998Z,1.95
2023-05-14T14:28:31.377Z,2.03
2023-05-14T14:30:58.041Z,1.95
2023-05-14T14:33:24.684Z,2.15
2023-05-14T14:35:51.796Z,1.60
2023-05-14T14:38:18.425Z,2.00
2023-05-14T14:40:46.158Z,1.95
2023-05-14T14:43:12.783Z,2.05
2023-05-14T14:45:39.340Z,1.88
2023-05-14T14:48:28.811Z,1.90
2023-05-14T14:50:55.906Z,1.90
2023-05-14T14:53:23.178Z,1.80
2023-05-14T14:55:50.146Z,1.73
2023-05-14T14:58:18.731Z,1.63
2023-05-14T15:00:45.791Z,1.58
2023-05-14T15:03:12.862Z,1.70
2023-05-14T15:05:39.583Z,1.65
2023-05-14T15:08:06.249Z,1.80
2023-05-14T15:10:32.937Z,1.80
2023-05-14T15:12:59.900Z,1.92
2023-05-14T15:15:26.547Z,1.65
2023-05-14T15:17:53.257Z,2.00
2023-05-14T15:20:19.956Z,1.73
2023-05-14T15:22:46.574Z,1.73
2023-05-14T15:25:13.156Z,1.80
2023-05-14T15:27:39.713Z,1.90
2023-05-14T15:30:07.386Z,1.95
2023-05-14T15:32:34.190Z,2.00
2023-05-14T15:35:01.372Z,2.20
2023-05-14T15:37:27.963Z,2.03
2023-05-14T15:39:54.513Z,2.50
2023-05-14T15:42:21.290Z,2.05
2023-05-14T15:44:47.887Z,2.00
2023-05-14T15:47:14.485Z,2.20
2023-05-14T15:49:41.042Z,1.98
2023-05-14T15:52:07.820Z,2.38
2023-05-14T15:54:34.409Z,1.67
2023-05-14T15:57:01.395Z,2.17
2023-05-14T15:59:27.988Z,2.30
2023-05-14T16:01:54.545Z,2.00
2023-05-14T16:04:21.109Z,2.15
2023-05-14T16:06:47.674Z,1.80
2023-05-14T16:09:14.833Z,1.90
2023-05-14T16:11:41.365Z,2.33
2023-05-14T16:14:07.907Z,1.90
2023-05-14T16:16:34.543Z,1.90
2023-05-14T16:19:01.190Z,2.00
2023-05-14T16:21:27.786Z,2.00
2023-05-14T16:23:54.701Z,1.92
2023-05-14T16:26:22.355Z,1.90
2023-05-14T16:28:48.922Z,2.17
2023-05-14T16:31:15.930Z,2.10
2023-05-14T16:33:42.655Z,2.17
2023-05-14T16:36:09.305Z,2.25
2023-05-14T16:38:41.482Z,2.20
2023-05-14T16:41:14.870Z,1.90
2023-05-14T16:43:41.452Z,2.35
2023-05-14T16:46:08.165Z,2.13
2023-05-14T16:48:35.050Z,2.60
2023-05-14T16:51:01.601Z,2.40
2023-05-14T16:53:28.196Z,2.03
2023-05-14T16:55:54.903Z,1.92
2023-05-14T16:58:21.533Z,2.08
2023-05-14T17:00:48.076Z,2.00
2023-05-14T17:03:14.750Z,2.30
2023-05-14T17:05:41.400Z,2.30
2023-05-14T17:08:07.972Z,2.30
2023-05-14T17:10:35.833Z,2.50
2023-05-14T17:13:02.690Z,2.00
2023-05-14T17:15:29.760Z,2.22
2023-05-14T17:17:56.419Z,2.67
2023-05-14T17:20:23.304Z,3.17
2023-05-14T17:22:49.965Z,2.60
2023-05-14T17:25:16.705Z,2.50
2023-05-14T17:27:43.282Z,2.88
2023-05-14T17:30:10.213Z,2.88
2023-05-14T17:32:36.916Z,2.80
2023-05-14T17:35:03.763Z,2.65
2023-05-14T17:37:30.397Z,2.90
2023-05-14T17:39:56.963Z,3.20
2023-05-14T17:42:23.641Z,3.33
2023-05-14T17:44:50.235Z,3.47
2023-05-14T17:47:16.783Z,2.90
2023-05-14T17:49:43.627Z,3.00
2023-05-14T17:52:10.263Z,3.10
2023-05-14T17:54:36.888Z,2.92
2023-05-14T17:57:03.509Z,2.80
2023-05-14T17:59:30.084Z,3.20
2023-05-14T18:01:56.661Z,3.45
2023-05-14T18:04:23.270Z,2.97
2023-05-14T18:06:49.808Z,3.47
2023-05-14T18:09:16.480Z,3.28
2023-05-14T18:11:43.202Z,3.05
2023-05-14T18:14:09.847Z,3.47
2023-05-14T18:16:37.451Z,3.13
2023-05-14T18:19:04.826Z,3.67
2023-05-14T18:21:31.636Z,3.60
2023-05-14T18:23:58.214Z,2.63
2023-05-14T18:26:24.829Z,2.97
2023-05-14T18:28:51.626Z,3.03
2023-05-14T18:31:18.242Z,2.83
2023-05-14T18:33:44.840Z,3.40
2023-05-14T18:36:11.710Z,3.15
2023-05-14T18:38:38.414Z,3.13
2023-05-14T18:41:05.119Z,3.30
2023-05-14T18:43:31.885Z,3.83
2023-05-14T18:45:59.110Z,3.28
2023-05-14T18:48:26.408Z,3.10
2023-05-14T18:50:52.984Z,3.03
2023-05-14T18:53:19.593Z,4.20
2023-05-14T18:55:46.241Z,3.70
2023-05-14T18:58:14.453Z,3.50
2023-05-14T19:00:41.155Z,3.28
2023-05-14T19:03:07.789Z,3.60
2023-05-14T19:05:34.441Z,3.45
2023-05-14T19:08:01.064Z,3.42
2023-05-14T19:10:27.686Z,3.05
2023-05-14T19:12:54.283Z,2.92
2023-05-14T19:15:20.910Z,3.22
2023-05-14T19:17:47.628Z,3.60
2023-05-14T19:20:14.217Z,3.45
2023-05-14T19:22:40.902Z,3.55
2023-05-14T19:25:08.375Z,3.55
2023-05-14T19:27:37.097Z,3.43
2023-05-14T19:30:04.081Z,3.47
2023-05-14T19:32:30.691Z,3.65
2023-05-14T19:34:57.274Z,3.95
2023-05-14T19:37:24.062Z,3.35
2023-05-14T19:39:50.681Z,4.07
2023-05-14T19:42:17.402Z,3.92
2023-05-14T19:44:44.132Z,3.40
2023-05-14T19:47:10.823Z,3.38
2023-05-14T19:49:37.731Z,4.20
2023-05-14T19:52:04.576Z,4.38
2023-05-14T19:54:31.165Z,4.90
2023-05-14T19:56:57.723Z,5.00
2023-05-14T19:59:24.868Z,4.55
2023-05-14T20:01:51.925Z,5.55
2023-05-14T20:04:19.792Z,5.65
2023-05-14T20:06:47.146Z,5.38
2023-05-14T20:09:14.468Z,5.60
2023-05-14T20:11:41.017Z,5.50
2023-05-14T20:14:07.688Z,4.57
2023-05-14T20:16:34.371Z,4.55
2023-05-14T20:19:00.987Z,3.90
2023-05-14T20:21:27.563Z,4.32
2023-05-14T20:23:54.265Z,4.00
2023-05-14T20:26:21.251Z,4.07
2023-05-14T20:28:47.810Z,4.80
2023-05-14T20:31:14.385Z,4.28
2023-05-14T20:33:41.060Z,3.92
2023-05-14T20:36:07.628Z,5.07
2023-05-14T20:38:35.129Z,3.90
2023-05-14T20:41:01.773Z,3.60
2023-05-14T20:43:28.485Z,3.55
2023-05-14T20:45:57.482Z,4.00
2023-05-14T20:48:24.172Z,3.63
2023-05-14T20:50:51.116Z,3.92
2023-05-14T20:53:17.672Z,3.92
2023-05-14T20:55:44.795Z,3.63
2023-05-14T20:58:11.379Z,3.90
2023-05-14T21:00:38.092Z,4.20
2023-05-14T21:03:04.860Z,3.50
2023-05-14T21:05:31.504Z,3.67
2023-05-14T21:07:58.061Z,3.80
2023-05-14T21:10:25.596Z,3.63
2023-05-14T21:12:52.421Z,3.67
2023-05-14T21:15:19.024Z,3.25
2023-05-14T21:17:45.957Z,3.45
2023-05-14T21:20:15.386Z,3.60
2023-05-14T21:22:41.945Z,3.38
2023-05-14T21:25:08.861Z,3.67
2023-05-14T21:27:35.481Z,3.67
2023-05-14T21:30:02.187Z,3.90
2023-05-14T21:32:28.827Z,3.70
2023-05-14T21:34:56.171Z,3.60
2023-05-14T21:37:22.845Z,4.80
2023-05-14T21:39:49.386Z,4.40
2023-05-14T21:42:16.340Z,4.57
2023-05-14T21:44:42.913Z,3.80
2023-05-14T21:47:09.464Z,4.07
2023-05-14T21:49:36.015Z,4.15
2023-05-14T21:52:03.034Z,4.22
2023-05-14T21:54:29.644Z,4.05
2023-05-14T21:56:56.255Z,4.47
2023-05-14T21:59:22.804Z,4.03
2023-05-14T22:04:18.964Z,4.03
2023-05-14T22:06:45.680Z,3.60
2023-05-14T22:09:12.363Z,3.97
2023-05-14T22:11:38.924Z,3.83
2023-05-14T22:14:05.643Z,3.78
2023-05-14T22:16:33.057Z,3.80
2023-05-14T22:18:59.857Z,3.70
2023-05-14T22:21:26.609Z,3.47
2023-05-14T22:23:53.224Z,3.88
2023-05-14T22:26:21.551Z,4.18
2023-05-14T22:28:49.595Z,5.03
2023-05-14T22:31:16.241Z,4.15
2023-05-14T22:33:42.947Z,4.47
2023-05-14T22:36:10.468Z,4.13
2023-05-14T22:38:37.171Z,4.25
2023-05-14T22:41:03.749Z,3.95
2023-05-14T22:43:30.380Z,3.90
2023-05-14T22:45:56.949Z,4.10
2023-05-14T22:48:23.975Z,3.58
2023-05-14T22:50:51.808Z,4.40
2023-05-14T22:53:18.346Z,3.83
2023-05-14T22:55:44.902Z,3.53
2023-05-14T22:58:11.537Z,3.60
2023-05-14T23:00:38.122Z,3.42
2023-05-14T23:03:04.774Z,3.45
2023-05-14T23:05:31.356Z,3.38
2023-05-14T23:07:57.912Z,3.60
2023-05-14T23:10:24.552Z,3.60
2023-05-14T23:12:51.107Z,4.05
2023-05-14T23:15:17.678Z,4.18
2023-05-14T23:17:44.303Z,3.85
2023-05-14T23:20:12.737Z,4.50
2023-05-14T23:22:40.106Z,3.95
2023-05-14T23:25:07.805Z,4.00
2023-05-14T23:27:34.814Z,4.25
2023-05-14T23:30:02.764Z,4.22
2023-05-14T23:32:29.387Z,4.75
2023-05-14T23:34:56.083Z,4.70
2023-05-14T23:37:23.297Z,4.85
2023-05-14T23:39:50.143Z,4.90
2023-05-14T23:42:16.714Z,4.97
2023-05-14T23:44:43.381Z,4.70
2023-05-14T23:47:10.188Z,4.72
2023-05-14T23:49:36.977Z,4.78
2023-05-14T23:52:03.671Z,4.82
2023-05-14T23:54:30.225Z,5.35
2023-05-14T23:56:56.793Z,4.90
2023-05-14T23:59:23.353Z,4.75
